Baie De Seine — FISL — position and weather

sailwx.info

Track history (hours):
 
Tides and Currents Weather Stations Pressure Air Temp Water Temp Dewpoint Dewpoint Depression Visibility Wind Speed Wind Dir Waves Ship Positions

Baie De Seine

Last reported at 2018-Feb-24 14:00 UTC. Time now 2018-Feb-24 14:05 UTC.
Position N 49°58' W 002°50'.

Length 199 m; draft 6 m.

Type: Ship. MMSI: 226338000.

Date/timePositionNaut miles runAvg speedWind from/ knotsBaromVisibWave heightAir tempDewpointWater temp
2018-Feb-24 14:00N 49°58' W 002°50'4118.3
2018-Feb-24 11:46N 50°17' W 001°53'2818.6
2018-Feb-24 10:14N 50°31' W 001°15'418.3
2018-Feb-24 10:00N 50°33' W 001°09'919.0
2018-Feb-24 09:31N 50°40' W 000°59'815.5
2018-Feb-24 09:00N 50°46' W 001°06'2 4.6
2018-Feb-24 08:30N 50°49' W 001°06'0 0.0
2018-Feb-24 08:00N 50°49' W 001°06'0 0.0
2018-Feb-24 07:30N 50°49' W 001°06'0 0.0
2018-Feb-24 07:00N 50°49' W 001°06'0 0.0
2018-Feb-24 06:30N 50°49' W 001°06'0 0.0
2018-Feb-24 06:00N 50°49' W 001°06'2 3.7
2018-Feb-24 05:30N 50°47' W 001°06'815.6
2018-Feb-24 05:00N 50°41' W 000°58'815.7
2018-Feb-24 04:30N 50°34' W 000°52'2913.0
2018-Feb-24 02:17N 50°09' W 000°30'413.0
2018-Feb-24 02:00N 50°06' W 000°27'1313.2
2018-Feb-24 01:01N 49°54' W 000°18'612.8
2018-Feb-24 00:30N 49°48' W 000°14'612.4
2018-Feb-24 00:01N 49°43' W 000°09'611.7
2018-Feb-23 23:30N 49°38' W 000°05'0 0.9
2018-Feb-23 23:01N 49°38' W 000°04'1 1.1
2018-Feb-23 22:31N 49°38' W 000°03'1 1.3
2018-Feb-23 22:00N 49°37' W 000°03'713.5
2018-Feb-23 21:30N 49°30' W 000°01'510.0
2018-Feb-23 21:00N 49°29' E 000°07'0 0.0
2018-Feb-23 20:30N 49°29' E 000°07'0 0.0
2018-Feb-23 20:00N 49°29' E 000°07'0 0.0
2018-Feb-23 19:30N 49°29' E 000°07'0 0.0
2018-Feb-23 19:00N 49°29' E 000°07'0 0.0
2018-Feb-23 18:30N 49°29' E 000°07'0 0.0
2018-Feb-23 18:00N 49°29' E 000°07'0 0.0
2018-Feb-23 17:30N 49°29' E 000°07'0 0.0
2018-Feb-23 17:00N 49°29' E 000°07'0 0.0
2018-Feb-23 16:30N 49°29' E 000°07'0 0.0
2018-Feb-23 16:00N 49°29' E 000°07'0 0.0
2018-Feb-23 15:30N 49°29' E 000°07'0 0.0
2018-Feb-23 15:00N 49°29' E 000°07'0 0.0
2018-Feb-23 14:30N 49°29' E 000°07'0 0.0
2018-Feb-23 14:00N 49°29' E 000°07'0 0.0
2018-Feb-23 13:30N 49°29' E 000°07'0 0.0
2018-Feb-23 13:00N 49°29' E 000°07'0 0.0
2018-Feb-23 12:30N 49°29' E 000°07'0 0.0
2018-Feb-23 12:00N 49°29' E 000°07'0 0.0
2018-Feb-23 11:30N 49°29' E 000°07'0 0.0
2018-Feb-23 11:00N 49°29' E 000°07'0 0.0
2018-Feb-23 10:30N 49°29' E 000°07'0 0.0
2018-Feb-23 10:00N 49°29' E 000°07'0 0.0
2018-Feb-23 09:30N 49°29' E 000°07'0 0.0
2018-Feb-23 09:00N 49°29' E 000°07'0 0.0
2018-Feb-23 08:30N 49°29' E 000°07'0 0.0
2018-Feb-23 08:00N 49°29' E 000°07'0 0.0
2018-Feb-23 07:30N 49°29' E 000°07'3 5.6
2018-Feb-23 07:00N 49°30' E 000°03'917.4
2018-Feb-23 06:30N 49°37' W 000°04'612.5
2018-Feb-23 06:00N 49°42' W 000°10'611.3
2018-Feb-23 05:30N 49°46' W 000°16'612.1
2018-Feb-23 05:00N 49°52' W 000°20'611.9
2018-Feb-23 04:30N 49°57' W 000°24'611.7
2018-Feb-23 04:00N 50°02' W 000°28'3011.9
2018-Feb-23 01:30N 50°29' W 000°47'612.7
2018-Feb-23 01:01N 50°35' W 000°52'816.6
2018-Feb-23 00:30N 50°42' W 000°58'713.7
2018-Feb-23 00:00N 50°47' W 001°06'2 3.3
2018-Feb-22 23:30N 50°49' W 001°06'0 0.0
2018-Feb-22 23:00N 50°49' W 001°06'0 0.0
2018-Feb-22 22:30N 50°49' W 001°06'0 0.0
2018-Feb-22 22:00N 50°49' W 001°06'0 0.0
2018-Feb-22 21:31N 50°49' W 001°06'0 0.0
2018-Feb-22 21:00N 50°49' W 001°06'2 4.5
2018-Feb-22 20:31N 50°46' W 001°06'713.4
2018-Feb-22 20:00N 50°42' W 000°58'816.0
2018-Feb-22 19:30N 50°35' W 001°05'916.6
2018-Feb-22 18:59N 50°31' W 001°17'915.1
2018-Feb-22 18:23N 50°26' W 001°29'4116.1
2018-Feb-22 15:48N 49°59' W 002°18'718.8
2018-Feb-22 15:25N 49°55' W 002°28'1219.3
2018-Feb-22 14:48N 49°51' W 002°45'8019.6
2018-Feb-22 10:42N 48°56' W 004°16'419.4
2018-Feb-22 10:29N 48°54' W 004°21'1019.6
2018-Feb-22 10:00N 48°47' W 004°31'1019.8
2018-Feb-22 09:30N 48°40' W 004°42'918.7
2018-Feb-22 09:00N 48°34' W 004°52'816.6
2018-Feb-22 08:31N 48°27' W 005°00'714.8
2018-Feb-22 08:01N 48°22' W 005°07'816.3
2018-Feb-22 07:30N 48°13' W 005°09'917.6
2018-Feb-22 06:59N 48°04' W 005°09'1019.5
2018-Feb-22 06:29N 47°55' W 005°07'918.2
2018-Feb-22 06:01N 47°46' W 005°05'917.6
2018-Feb-22 05:29N 47°37' W 005°02'24420.2
2018-Feb-21 17:23N 43°38' W 003°48'11 2.5
2018-Feb-21 13:02N 43°27' W 003°48'1 6.2
2018-Feb-21 12:54N 43°27' W 003°47'513.1
2018-Feb-21 12:30N 43°33' W 003°46'1019.0
2018-Feb-21 11:58N 43°43' W 003°49'23519.0
2018-Feb-20 23:36N 47°33' W 004°58'217.0
2018-Feb-20 23:29N 47°35' W 004°59'917.2
2018-Feb-20 23:00N 47°43' W 005°01'917.6
2018-Feb-20 22:30N 47°51' W 005°04'1020.0
2018-Feb-20 22:00N 48°01' W 005°08'1020.6
2018-Feb-20 21:30N 48°11' W 005°08'1121.3
2018-Feb-20 21:00N 48°22' W 005°06'815.4
2018-Feb-20 20:31N 48°28' W 004°59'1020.7
2018-Feb-20 20:01N 48°36' W 004°50'918.9
2018-Feb-20 19:30N 48°43' W 004°39'1018.7
2018-Feb-20 18:59N 48°49' W 004°28'1119.1
2018-Feb-20 18:25N 48°57' W 004°17'6018.9
2018-Feb-20 15:14N 49°43' W 003°18'1720.7
2018-Feb-20 14:24N 49°56' W 003°00'921.1
2018-Feb-20 13:59N 50°02' W 002°49'1021.0
2018-Feb-20 13:30N 50°05' W 002°34'2319.5
2018-Feb-20 12:20N 50°13' W 002°01'618.5
2018-Feb-20 12:00N 50°16' W 001°53'918.1
2018-Feb-20 11:30N 50°20' W 001°40'1517.8
2018-Feb-20 10:40N 50°28' W 001°21'517.5
2018-Feb-20 10:24N 50°30' W 001°15'816.7
2018-Feb-20 09:55N 50°37' W 001°06'615.2
2018-Feb-20 09:30N 50°42' W 001°03'713.1
2018-Feb-20 09:01N 50°48' W 001°07'1 1.2
2018-Feb-20 08:30N 50°49' W 001°06'0 0.0
2018-Feb-20 08:00N 50°49' W 001°06'0 0.0
2018-Feb-20 07:30N 50°49' W 001°06'0 0.0
2018-Feb-20 07:00N 50°49' W 001°06'0 0.0
2018-Feb-20 06:30N 50°49' W 001°06'0 0.2
2018-Feb-20 06:00N 50°49' W 001°06'0 0.0
2018-Feb-20 05:31N 50°49' W 001°06'0 0.0
2018-Feb-20 05:00N 50°49' W 001°06'0 0.0
2018-Feb-20 04:31N 50°49' W 001°06'0 0.0
2018-Feb-20 04:00N 50°49' W 001°06'0 0.0
2018-Feb-20 03:31N 50°49' W 001°06'0 0.0
2018-Feb-20 03:00N 50°49' W 001°06'0 0.0
2018-Feb-20 02:30N 50°49' W 001°06'0 0.0
2018-Feb-20 02:00N 50°49' W 001°06'0 0.0
2018-Feb-20 01:30N 50°49' W 001°06'0 0.0
2018-Feb-20 01:00N 50°49' W 001°06'0 0.0
2018-Feb-20 00:30N 50°49' W 001°06'0 0.0
2018-Feb-20 00:00N 50°49' W 001°06'0 0.0
2018-Feb-19 23:30N 50°49' W 001°06'0 0.0
2018-Feb-19 23:00N 50°49' W 001°06'0 0.0
2018-Feb-19 22:30N 50°49' W 001°06'0 0.0
2018-Feb-19 22:00N 50°49' W 001°06'0 0.0
2018-Feb-19 21:30N 50°49' W 001°06'0 0.3
2018-Feb-19 21:01N 50°49' W 001°06'4 7.4
2018-Feb-19 20:30N 50°45' W 001°05'611.4
2018-Feb-19 20:01N 50°42' W 000°58'1019.3
2018-Feb-19 19:31N 50°35' W 001°08'1020.1
2018-Feb-19 19:00N 50°29' W 001°22'3319.4
2018-Feb-19 17:19N 50°11' W 002°05'918.1
2018-Feb-19 16:48N 50°04' W 002°13'2517.9
2018-Feb-19 15:23N 49°49' W 002°45'1418.6
2018-Feb-19 14:39N 49°42' W 003°04'1019.1
2018-Feb-19 14:06N 49°36' W 003°16'5619.1
2018-Feb-19 11:10N 48°56' W 004°17'519.0
2018-Feb-19 10:54N 48°53' W 004°23'719.1
2018-Feb-19 10:30N 48°48' W 004°31'1019.0
2018-Feb-19 10:00N 48°41' W 004°41'918.8
2018-Feb-19 09:30N 48°34' W 004°51'1019.1
2018-Feb-19 09:00N 48°27' W 005°01'714.5
2018-Feb-19 08:30N 48°21' W 005°06'1019.7
2018-Feb-19 08:00N 48°11' W 005°09'1018.9
2018-Feb-19 07:29N 48°01' W 005°09'918.8
2018-Feb-19 07:00N 47°55' W 004°59'919.1
2018-Feb-19 06:30N 47°47' W 004°51'1019.6
2018-Feb-19 05:59N 47°39' W 004°41'24914.3
2018-Feb-18 12:35N 43°33' W 003°46'218.9
2018-Feb-18 12:30N 43°34' W 003°46'24219.4
2018-Feb-18 00:02N 47°31' W 004°58'020.0
2018-Feb-18 00:00N 47°32' W 004°58'918.6
2018-Feb-17 23:30N 47°41' W 005°02'918.9
2018-Feb-17 23:00N 47°50' W 005°06'1019.8
2018-Feb-17 22:30N 47°59' W 005°09'1019.6
2018-Feb-17 22:00N 48°09' W 005°10'1019.5
2018-Feb-17 21:30N 48°18' W 005°08'917.4
2018-Feb-17 21:00N 48°26' W 005°02'919.0
2018-Feb-17 20:30N 48°33' W 004°52'1020.5
2018-Feb-17 20:00N 48°41' W 004°42'1119.6
2018-Feb-17 19:27N 48°48' W 004°30'918.9
2018-Feb-17 18:59N 48°54' W 004°20'9118.5
2018-Feb-17 14:02N 50°00' W 002°42'121.1
2018-Feb-17 14:00N 50°00' W 002°41'6017.2
2018-Feb-17 10:32N 50°29' W 001°20'417.2
2018-Feb-17 10:18N 50°31' W 001°14'516.9
2018-Feb-17 10:00N 50°34' W 001°08'815.5
2018-Feb-17 09:30N 50°41' W 001°03'713.9
2018-Feb-17 09:00N 50°47' W 001°07'1 2.5
2018-Feb-17 08:29N 50°49' W 001°06'0 0.0
2018-Feb-17 07:59N 50°49' W 001°06'0 0.0
2018-Feb-17 07:29N 50°49' W 001°06'0 0.0
2018-Feb-17 06:59N 50°49' W 001°06'0 0.0
2018-Feb-17 06:30N 50°49' W 001°06'0 0.1
2018-Feb-17 06:00N 50°49' W 001°06'2 4.7
2018-Feb-17 05:30N 50°46' W 001°06'815.3
2018-Feb-17 05:00N 50°41' W 000°57'713.9
2018-Feb-17 04:30N 50°35' W 000°51'3410.7
2018-Feb-17 01:18N 50°04' W 000°28'410.8
2018-Feb-17 00:53N 50°00' W 000°25'410.6
2018-Feb-17 00:30N 49°57' W 000°21'510.3
2018-Feb-17 00:00N 49°52' W 000°18'510.1
2018-Feb-16 23:30N 49°48' W 000°14'510.0
2018-Feb-16 23:00N 49°44' W 000°09'510.0
2018-Feb-16 22:30N 49°40' W 000°06'510.0
2018-Feb-16 22:00N 49°35' W 000°02'611.3
2018-Feb-16 21:31N 49°30' E 000°02'3 6.7
2018-Feb-16 21:00N 49°29' E 000°07'0 0.0
2018-Feb-16 20:30N 49°29' E 000°07'0 0.0
2018-Feb-16 20:00N 49°29' E 000°07'0 0.0
2018-Feb-16 19:30N 49°29' E 000°07'0 0.0
2018-Feb-16 19:00N 49°29' E 000°07'0 0.0
2018-Feb-16 18:30N 49°29' E 000°07'0 0.0
2018-Feb-16 18:00N 49°29' E 000°07'0 0.0
2018-Feb-16 17:30N 49°29' E 000°07'0 0.0
2018-Feb-16 17:00N 49°29' E 000°07'0 0.0
2018-Feb-16 16:30N 49°29' E 000°07'0 0.0
2018-Feb-16 16:00N 49°29' E 000°07'0 0.0
2018-Feb-16 15:30N 49°29' E 000°07'0 0.0
2018-Feb-16 15:00N 49°29' E 000°07'0 0.0
2018-Feb-16 14:30N 49°29' E 000°07'0 0.0
2018-Feb-16 14:00N 49°29' E 000°07'0 0.0
2018-Feb-16 13:30N 49°29' E 000°07'0 0.0
2018-Feb-16 13:00N 49°29' E 000°07'0 0.0
2018-Feb-16 12:30N 49°29' E 000°07'0 0.0
2018-Feb-16 12:00N 49°29' E 000°07'0 0.0
2018-Feb-16 11:30N 49°29' E 000°07'0 0.0
2018-Feb-16 11:00N 49°29' E 000°07'0 0.0
2018-Feb-16 10:30N 49°29' E 000°07'0 0.0
2018-Feb-16 10:00N 49°29' E 000°07'0 0.0
2018-Feb-16 09:30N 49°29' E 000°07'0 0.0
2018-Feb-16 09:00N 49°29' E 000°07'0 0.0
2018-Feb-16 08:30N 49°29' E 000°07'0 0.0
2018-Feb-16 08:00N 49°29' E 000°07'0 0.0
2018-Feb-16 07:30N 49°29' E 000°07'2 3.5
2018-Feb-16 07:01N 49°29' E 000°04'815.1
2018-Feb-16 06:30N 49°35' W 000°03'612.4
2018-Feb-16 06:00N 49°41' W 000°07'613.0
2018-Feb-16 05:30N 49°47' W 000°12'611.9
2018-Feb-16 05:00N 49°52' W 000°17'611.4
2018-Feb-16 04:30N 49°56' W 000°22'611.4
2018-Feb-16 04:00N 50°02' W 000°25'611.9
2018-Feb-16 03:29N 50°07' W 000°30'2412.1
2018-Feb-16 01:29N 50°28' W 000°48'611.8
2018-Feb-16 01:00N 50°33' W 000°52'612.3
2018-Feb-16 00:30N 50°39' W 000°56'612.2
2018-Feb-16 00:00N 50°43' W 001°02'611.0
2018-Feb-15 23:30N 50°48' W 001°07'1 1.8
2018-Feb-15 22:58N 50°49' W 001°06'0 0.0
2018-Feb-15 22:28N 50°49' W 001°06'0 0.0
2018-Feb-15 22:00N 50°49' W 001°06'0 0.0
2018-Feb-15 21:30N 50°49' W 001°06'0 0.0
2018-Feb-15 21:01N 50°49' W 001°06'1 1.7
2018-Feb-15 20:30N 50°48' W 001°07'611.5
2018-Feb-15 20:00N 50°43' W 001°02'713.5
2018-Feb-15 19:30N 50°37' W 001°03'1020.4
2018-Feb-15 19:00N 50°30' W 001°14'3620.6
2018-Feb-15 17:15N 50°10' W 002°02'1820.5
2018-Feb-15 16:21N 49°57' W 002°23'1019.7
2018-Feb-15 15:52N 49°54' W 002°37'719.8
2018-Feb-15 15:30N 49°51' W 002°47'7819.5
2018-Feb-15 11:31N 48°58' W 004°14'019.2
2018-Feb-15 11:30N 48°58' W 004°15'1018.6
2018-Feb-15 10:58N 48°51' W 004°26'714.7
2018-Feb-15 10:30N 48°46' W 004°33'714.4
2018-Feb-15 10:00N 48°41' W 004°41'714.1
2018-Feb-15 09:30N 48°36' W 004°49'714.7
2018-Feb-15 09:00N 48°31' W 004°56'714.9
2018-Feb-15 08:30N 48°25' W 005°04'815.4
2018-Feb-15 08:00N 48°18' W 005°08'917.9
2018-Feb-15 07:31N 48°09' W 005°09'917.7
2018-Feb-15 06:59N 48°00' W 005°09'918.0
2018-Feb-15 06:30N 47°51' W 005°06'918.7
2018-Feb-15 05:59N 47°42' W 005°03'1018.9
2018-Feb-15 05:28N 47°33' W 005°01'24419.2
2018-Feb-14 16:44N 43°34' W 003°46'  
Track history (hours):
 
Tides and Currents Weather Stations Pressure Air Temp Water Temp Dewpoint Dewpoint Depression Visibility Wind Speed Wind Dir Waves Ship Positions

Baie De Seine

Last reported at 2018-Feb-24 14:00 UTC. Time now 2018-Feb-24 14:05 UTC.
Position N 49°58' W 002°50'.

Length 199 m; draft 6 m.

Type: Ship. MMSI: 226338000.

Date/timePositionNaut miles runAvg speedWind from/ knotsBaromVisibWave heightAir tempDewpointWater temp
2018-Feb-24 14:00N 49°58' W 002°50'4118.3
2018-Feb-24 11:46N 50°17' W 001°53'2818.6
2018-Feb-24 10:14N 50°31' W 001°15'418.3
2018-Feb-24 10:00N 50°33' W 001°09'919.0
2018-Feb-24 09:31N 50°40' W 000°59'815.5
2018-Feb-24 09:00N 50°46' W 001°06'2 4.6
2018-Feb-24 08:30N 50°49' W 001°06'0 0.0
2018-Feb-24 08:00N 50°49' W 001°06'0 0.0
2018-Feb-24 07:30N 50°49' W 001°06'0 0.0
2018-Feb-24 07:00N 50°49' W 001°06'0 0.0
2018-Feb-24 06:30N 50°49' W 001°06'0 0.0
2018-Feb-24 06:00N 50°49' W 001°06'2 3.7
2018-Feb-24 05:30N 50°47' W 001°06'815.6
2018-Feb-24 05:00N 50°41' W 000°58'815.7
2018-Feb-24 04:30N 50°34' W 000°52'2913.0
2018-Feb-24 02:17N 50°09' W 000°30'413.0
2018-Feb-24 02:00N 50°06' W 000°27'1313.2
2018-Feb-24 01:01N 49°54' W 000°18'612.8
2018-Feb-24 00:30N 49°48' W 000°14'612.4
2018-Feb-24 00:01N 49°43' W 000°09'611.7
2018-Feb-23 23:30N 49°38' W 000°05'0 0.9
2018-Feb-23 23:01N 49°38' W 000°04'1 1.1
2018-Feb-23 22:31N 49°38' W 000°03'1 1.3
2018-Feb-23 22:00N 49°37' W 000°03'713.5
2018-Feb-23 21:30N 49°30' W 000°01'510.0
2018-Feb-23 21:00N 49°29' E 000°07'0 0.0
2018-Feb-23 20:30N 49°29' E 000°07'0 0.0
2018-Feb-23 20:00N 49°29' E 000°07'0 0.0
2018-Feb-23 19:30N 49°29' E 000°07'0 0.0
2018-Feb-23 19:00N 49°29' E 000°07'0 0.0
2018-Feb-23 18:30N 49°29' E 000°07'0 0.0
2018-Feb-23 18:00N 49°29' E 000°07'0 0.0
2018-Feb-23 17:30N 49°29' E 000°07'0 0.0
2018-Feb-23 17:00N 49°29' E 000°07'0 0.0
2018-Feb-23 16:30N 49°29' E 000°07'0 0.0
2018-Feb-23 16:00N 49°29' E 000°07'0 0.0
2018-Feb-23 15:30N 49°29' E 000°07'0 0.0
2018-Feb-23 15:00N 49°29' E 000°07'0 0.0
2018-Feb-23 14:30N 49°29' E 000°07'0 0.0
2018-Feb-23 14:00N 49°29' E 000°07'0 0.0
2018-Feb-23 13:30N 49°29' E 000°07'0 0.0
2018-Feb-23 13:00N 49°29' E 000°07'0 0.0
2018-Feb-23 12:30N 49°29' E 000°07'0 0.0
2018-Feb-23 12:00N 49°29' E 000°07'0 0.0
2018-Feb-23 11:30N 49°29' E 000°07'0 0.0
2018-Feb-23 11:00N 49°29' E 000°07'0 0.0
2018-Feb-23 10:30N 49°29' E 000°07'0 0.0
2018-Feb-23 10:00N 49°29' E 000°07'0 0.0
2018-Feb-23 09:30N 49°29' E 000°07'0 0.0
2018-Feb-23 09:00N 49°29' E 000°07'0 0.0
2018-Feb-23 08:30N 49°29' E 000°07'0 0.0
2018-Feb-23 08:00N 49°29' E 000°07'0 0.0
2018-Feb-23 07:30N 49°29' E 000°07'3 5.6
2018-Feb-23 07:00N 49°30' E 000°03'917.4
2018-Feb-23 06:30N 49°37' W 000°04'612.5
2018-Feb-23 06:00N 49°42' W 000°10'611.3
2018-Feb-23 05:30N 49°46' W 000°16'612.1
2018-Feb-23 05:00N 49°52' W 000°20'611.9
2018-Feb-23 04:30N 49°57' W 000°24'611.7
2018-Feb-23 04:00N 50°02' W 000°28'3011.9
2018-Feb-23 01:30N 50°29' W 000°47'612.7
2018-Feb-23 01:01N 50°35' W 000°52'816.6
2018-Feb-23 00:30N 50°42' W 000°58'713.7
2018-Feb-23 00:00N 50°47' W 001°06'2 3.3
2018-Feb-22 23:30N 50°49' W 001°06'0 0.0
2018-Feb-22 23:00N 50°49' W 001°06'0 0.0
2018-Feb-22 22:30N 50°49' W 001°06'0 0.0
2018-Feb-22 22:00N 50°49' W 001°06'0 0.0
2018-Feb-22 21:31N 50°49' W 001°06'0 0.0
2018-Feb-22 21:00N 50°49' W 001°06'2 4.5
2018-Feb-22 20:31N 50°46' W 001°06'713.4
2018-Feb-22 20:00N 50°42' W 000°58'816.0
2018-Feb-22 19:30N 50°35' W 001°05'916.6
2018-Feb-22 18:59N 50°31' W 001°17'915.1
2018-Feb-22 18:23N 50°26' W 001°29'4116.1
2018-Feb-22 15:48N 49°59' W 002°18'718.8
2018-Feb-22 15:25N 49°55' W 002°28'1219.3
2018-Feb-22 14:48N 49°51' W 002°45'8019.6
2018-Feb-22 10:42N 48°56' W 004°16'419.4
2018-Feb-22 10:29N 48°54' W 004°21'1019.6
2018-Feb-22 10:00N 48°47' W 004°31'1019.8
2018-Feb-22 09:30N 48°40' W 004°42'918.7
2018-Feb-22 09:00N 48°34' W 004°52'816.6
2018-Feb-22 08:31N 48°27' W 005°00'714.8
2018-Feb-22 08:01N 48°22' W 005°07'816.3
2018-Feb-22 07:30N 48°13' W 005°09'917.6
2018-Feb-22 06:59N 48°04' W 005°09'1019.5
2018-Feb-22 06:29N 47°55' W 005°07'918.2
2018-Feb-22 06:01N 47°46' W 005°05'917.6
2018-Feb-22 05:29N 47°37' W 005°02'24420.2
2018-Feb-21 17:23N 43°38' W 003°48'11 2.5
2018-Feb-21 13:02N 43°27' W 003°48'1 6.2
2018-Feb-21 12:54N 43°27' W 003°47'513.1
2018-Feb-21 12:30N 43°33' W 003°46'1019.0
2018-Feb-21 11:58N 43°43' W 003°49'23519.0
2018-Feb-20 23:36N 47°33' W 004°58'217.0
2018-Feb-20 23:29N 47°35' W 004°59'917.2
2018-Feb-20 23:00N 47°43' W 005°01'917.6
2018-Feb-20 22:30N 47°51' W 005°04'1020.0
2018-Feb-20 22:00N 48°01' W 005°08'1020.6
2018-Feb-20 21:30N 48°11' W 005°08'1121.3
2018-Feb-20 21:00N 48°22' W 005°06'815.4
2018-Feb-20 20:31N 48°28' W 004°59'1020.7
2018-Feb-20 20:01N 48°36' W 004°50'918.9
2018-Feb-20 19:30N 48°43' W 004°39'1018.7
2018-Feb-20 18:59N 48°49' W 004°28'1119.1
2018-Feb-20 18:25N 48°57' W 004°17'6018.9
2018-Feb-20 15:14N 49°43' W 003°18'1720.7
2018-Feb-20 14:24N 49°56' W 003°00'921.1
2018-Feb-20 13:59N 50°02' W 002°49'1021.0
2018-Feb-20 13:30N 50°05' W 002°34'2319.5
2018-Feb-20 12:20N 50°13' W 002°01'618.5
2018-Feb-20 12:00N 50°16' W 001°53'918.1
2018-Feb-20 11:30N 50°20' W 001°40'1517.8
2018-Feb-20 10:40N 50°28' W 001°21'517.5
2018-Feb-20 10:24N 50°30' W 001°15'816.7
2018-Feb-20 09:55N 50°37' W 001°06'615.2
2018-Feb-20 09:30N 50°42' W 001°03'713.1
2018-Feb-20 09:01N 50°48' W 001°07'1 1.2
2018-Feb-20 08:30N 50°49' W 001°06'0 0.0
2018-Feb-20 08:00N 50°49' W 001°06'0 0.0
2018-Feb-20 07:30N 50°49' W 001°06'0 0.0
2018-Feb-20 07:00N 50°49' W 001°06'0 0.0
2018-Feb-20 06:30N 50°49' W 001°06'0 0.2
2018-Feb-20 06:00N 50°49' W 001°06'0 0.0
2018-Feb-20 05:31N 50°49' W 001°06'0 0.0
2018-Feb-20 05:00N 50°49' W 001°06'0 0.0
2018-Feb-20 04:31N 50°49' W 001°06'0 0.0
2018-Feb-20 04:00N 50°49' W 001°06'0 0.0
2018-Feb-20 03:31N 50°49' W 001°06'0 0.0
2018-Feb-20 03:00N 50°49' W 001°06'0 0.0
2018-Feb-20 02:30N 50°49' W 001°06'0 0.0
2018-Feb-20 02:00N 50°49' W 001°06'0 0.0
2018-Feb-20 01:30N 50°49' W 001°06'0 0.0
2018-Feb-20 01:00N 50°49' W 001°06'0 0.0
2018-Feb-20 00:30N 50°49' W 001°06'0 0.0
2018-Feb-20 00:00N 50°49' W 001°06'0 0.0
2018-Feb-19 23:30N 50°49' W 001°06'0 0.0
2018-Feb-19 23:00N 50°49' W 001°06'0 0.0
2018-Feb-19 22:30N 50°49' W 001°06'0 0.0
2018-Feb-19 22:00N 50°49' W 001°06'0 0.0
2018-Feb-19 21:30N 50°49' W 001°06'0 0.3
2018-Feb-19 21:01N 50°49' W 001°06'4 7.4
2018-Feb-19 20:30N 50°45' W 001°05'611.4
2018-Feb-19 20:01N 50°42' W 000°58'1019.3
2018-Feb-19 19:31N 50°35' W 001°08'1020.1
2018-Feb-19 19:00N 50°29' W 001°22'3319.4
2018-Feb-19 17:19N 50°11' W 002°05'918.1
2018-Feb-19 16:48N 50°04' W 002°13'2517.9
2018-Feb-19 15:23N 49°49' W 002°45'1418.6
2018-Feb-19 14:39N 49°42' W 003°04'1019.1
2018-Feb-19 14:06N 49°36' W 003°16'5619.1
2018-Feb-19 11:10N 48°56' W 004°17'519.0
2018-Feb-19 10:54N 48°53' W 004°23'719.1
2018-Feb-19 10:30N 48°48' W 004°31'1019.0
2018-Feb-19 10:00N 48°41' W 004°41'918.8
2018-Feb-19 09:30N 48°34' W 004°51'1019.1
2018-Feb-19 09:00N 48°27' W 005°01'714.5
2018-Feb-19 08:30N 48°21' W 005°06'1019.7
2018-Feb-19 08:00N 48°11' W 005°09'1018.9
2018-Feb-19 07:29N 48°01' W 005°09'918.8
2018-Feb-19 07:00N 47°55' W 004°59'919.1
2018-Feb-19 06:30N 47°47' W 004°51'1019.6
2018-Feb-19 05:59N 47°39' W 004°41'24914.3
2018-Feb-18 12:35N 43°33' W 003°46'218.9
2018-Feb-18 12:30N 43°34' W 003°46'24219.4
2018-Feb-18 00:02N 47°31' W 004°58'020.0
2018-Feb-18 00:00N 47°32' W 004°58'918.6
2018-Feb-17 23:30N 47°41' W 005°02'918.9
2018-Feb-17 23:00N 47°50' W 005°06'1019.8
2018-Feb-17 22:30N 47°59' W 005°09'1019.6
2018-Feb-17 22:00N 48°09' W 005°10'1019.5
2018-Feb-17 21:30N 48°18' W 005°08'917.4
2018-Feb-17 21:00N 48°26' W 005°02'919.0
2018-Feb-17 20:30N 48°33' W 004°52'1020.5
2018-Feb-17 20:00N 48°41' W 004°42'1119.6
2018-Feb-17 19:27N 48°48' W 004°30'918.9
2018-Feb-17 18:59N 48°54' W 004°20'9118.5
2018-Feb-17 14:02N 50°00' W 002°42'121.1
2018-Feb-17 14:00N 50°00' W 002°41'6017.2
2018-Feb-17 10:32N 50°29' W 001°20'417.2
2018-Feb-17 10:18N 50°31' W 001°14'516.9
2018-Feb-17 10:00N 50°34' W 001°08'815.5
2018-Feb-17 09:30N 50°41' W 001°03'713.9
2018-Feb-17 09:00N 50°47' W 001°07'1 2.5
2018-Feb-17 08:29N 50°49' W 001°06'0 0.0
2018-Feb-17 07:59N 50°49' W 001°06'0 0.0
2018-Feb-17 07:29N 50°49' W 001°06'0 0.0
2018-Feb-17 06:59N 50°49' W 001°06'0 0.0
2018-Feb-17 06:30N 50°49' W 001°06'0 0.1
2018-Feb-17 06:00N 50°49' W 001°06'2 4.7
2018-Feb-17 05:30N 50°46' W 001°06'815.3
2018-Feb-17 05:00N 50°41' W 000°57'713.9
2018-Feb-17 04:30N 50°35' W 000°51'3410.7
2018-Feb-17 01:18N 50°04' W 000°28'410.8
2018-Feb-17 00:53N 50°00' W 000°25'410.6
2018-Feb-17 00:30N 49°57' W 000°21'510.3
2018-Feb-17 00:00N 49°52' W 000°18'510.1
2018-Feb-16 23:30N 49°48' W 000°14'510.0
2018-Feb-16 23:00N 49°44' W 000°09'510.0
2018-Feb-16 22:30N 49°40' W 000°06'510.0
2018-Feb-16 22:00N 49°35' W 000°02'611.3
2018-Feb-16 21:31N 49°30' E 000°02'3 6.7
2018-Feb-16 21:00N 49°29' E 000°07'0 0.0
2018-Feb-16 20:30N 49°29' E 000°07'0 0.0
2018-Feb-16 20:00N 49°29' E 000°07'0 0.0
2018-Feb-16 19:30N 49°29' E 000°07'0 0.0
2018-Feb-16 19:00N 49°29' E 000°07'0 0.0
2018-Feb-16 18:30N 49°29' E 000°07'0 0.0
2018-Feb-16 18:00N 49°29' E 000°07'0 0.0
2018-Feb-16 17:30N 49°29' E 000°07'0 0.0
2018-Feb-16 17:00N 49°29' E 000°07'0 0.0
2018-Feb-16 16:30N 49°29' E 000°07'0 0.0
2018-Feb-16 16:00N 49°29' E 000°07'0 0.0
2018-Feb-16 15:30N 49°29' E 000°07'0 0.0
2018-Feb-16 15:00N 49°29' E 000°07'0 0.0
2018-Feb-16 14:30N 49°29' E 000°07'0 0.0
2018-Feb-16 14:00N 49°29' E 000°07'0 0.0
2018-Feb-16 13:30N 49°29' E 000°07'0 0.0
2018-Feb-16 13:00N 49°29' E 000°07'0 0.0
2018-Feb-16 12:30N 49°29' E 000°07'0 0.0
2018-Feb-16 12:00N 49°29' E 000°07'0 0.0
2018-Feb-16 11:30N 49°29' E 000°07'0 0.0
2018-Feb-16 11:00N 49°29' E 000°07'0 0.0
2018-Feb-16 10:30N 49°29' E 000°07'0 0.0
2018-Feb-16 10:00N 49°29' E 000°07'0 0.0
2018-Feb-16 09:30N 49°29' E 000°07'0 0.0
2018-Feb-16 09:00N 49°29' E 000°07'0 0.0
2018-Feb-16 08:30N 49°29' E 000°07'0 0.0
2018-Feb-16 08:00N 49°29' E 000°07'0 0.0
2018-Feb-16 07:30N 49°29' E 000°07'2 3.5
2018-Feb-16 07:01N 49°29' E 000°04'815.1
2018-Feb-16 06:30N 49°35' W 000°03'612.4
2018-Feb-16 06:00N 49°41' W 000°07'613.0
2018-Feb-16 05:30N 49°47' W 000°12'611.9
2018-Feb-16 05:00N 49°52' W 000°17'611.4
2018-Feb-16 04:30N 49°56' W 000°22'611.4
2018-Feb-16 04:00N 50°02' W 000°25'611.9
2018-Feb-16 03:29N 50°07' W 000°30'2412.1
2018-Feb-16 01:29N 50°28' W 000°48'611.8
2018-Feb-16 01:00N 50°33' W 000°52'612.3
2018-Feb-16 00:30N 50°39' W 000°56'612.2
2018-Feb-16 00:00N 50°43' W 001°02'611.0
2018-Feb-15 23:30N 50°48' W 001°07'1 1.8
2018-Feb-15 22:58N 50°49' W 001°06'0 0.0
2018-Feb-15 22:28N 50°49' W 001°06'0 0.0
2018-Feb-15 22:00N 50°49' W 001°06'0 0.0
2018-Feb-15 21:30N 50°49' W 001°06'0 0.0
2018-Feb-15 21:01N 50°49' W 001°06'1 1.7
2018-Feb-15 20:30N 50°48' W 001°07'611.5
2018-Feb-15 20:00N 50°43' W 001°02'713.5
2018-Feb-15 19:30N 50°37' W 001°03'1020.4
2018-Feb-15 19:00N 50°30' W 001°14'3620.6
2018-Feb-15 17:15N 50°10' W 002°02'1820.5
2018-Feb-15 16:21N 49°57' W 002°23'1019.7
2018-Feb-15 15:52N 49°54' W 002°37'719.8
2018-Feb-15 15:30N 49°51' W 002°47'7819.5
2018-Feb-15 11:31N 48°58' W 004°14'019.2
2018-Feb-15 11:30N 48°58' W 004°15'1018.6
2018-Feb-15 10:58N 48°51' W 004°26'714.7
2018-Feb-15 10:30N 48°46' W 004°33'714.4
2018-Feb-15 10:00N 48°41' W 004°41'714.1
2018-Feb-15 09:30N 48°36' W 004°49'714.7
2018-Feb-15 09:00N 48°31' W 004°56'714.9
2018-Feb-15 08:30N 48°25' W 005°04'815.4
2018-Feb-15 08:00N 48°18' W 005°08'917.9
2018-Feb-15 07:31N 48°09' W 005°09'917.7
2018-Feb-15 06:59N 48°00' W 005°09'918.0
2018-Feb-15 06:30N 47°51' W 005°06'918.7
2018-Feb-15 05:59N 47°42' W 005°03'1018.9
2018-Feb-15 05:28N 47°33' W 005°01'24419.2
2018-Feb-14 16:44N 43°34' W 003°46'  

Dump ship's entire track history